Kanata, Canada
Current Conditions -  °F | °C
As of 4:00 PM on Friday 24 Oct 2014 (Local Time) from CYOW Reporting Station
Scattered Clouds Scattered Clouds  
Wind Chill: 61°   Ceiling: Unl
Heat Index: 61°   Visibility: 15mi
Dew Point: 41°   Wind: 6mph
Humidity: 48%   Direction: 280°W
Pressure: 29.84"   Gusts: NA
Location:  45.3°N, 75.91°W
Report Text: CYOW 242000Z 28005KT 230V300 15SM FEW090 SCT130 SCT200 16/05 A2984 RMK AC2AC1CI1 CI TR SLP108 DENSITY ALT 700FT
Loading
Personal Weather Stations






























Interactive Weather Map
Tropical Storm Tracking
New forecast layout! Learn more

10-Day Weather Forecast

Advertisements
Track Severe Weather on mobile